Time;durP1;ratioP1;P1;durP2;ratioP2;P2;SDS_P1;SDS_P2;PMS_P1;PMS_P2;Temp;Humidity;BMP_temperature;BMP_pressure;BME280_temperature;BME280_humidity;BME280_pressure;Samples;Min_cycle;Max_cycle;Signal;HPM_P1;HPM_P2
2021/04/18 00:01:29;;;;;;;8.80;3.92;;;16.90;54.10;;;;;;4992969;28;20069;-62
2021/04/18 00:03:54;;;;;;;9.70;3.92;;;16.90;54.20;;;;;;4993693;28;20061;-62
2021/04/18 00:06:20;;;;;;;8.18;3.72;;;16.80;54.30;;;;;;4993674;28;20392;-62
2021/04/18 00:08:47;;;;;;;8.38;3.78;;;16.90;54.30;;;;;;4991963;28;20026;-62
2021/04/18 00:11:13;;;;;;;8.13;3.53;;;16.80;54.30;;;;;;4993168;28;20478;-61
2021/04/18 00:13:38;;;;;;;8.05;4.13;;;16.80;54.40;;;;;;4992865;28;20035;-62
2021/04/18 00:16:04;;;;;;;8.10;3.45;;;16.80;54.20;;;;;;4993512;28;20102;-63
2021/04/18 00:18:30;;;;;;;8.48;3.85;;;16.80;54.20;;;;;;4991504;28;20037;-62
2021/04/18 00:20:56;;;;;;;7.43;3.42;;;16.80;54.10;;;;;;4993358;28;20548;-62
2021/04/18 00:23:22;;;;;;;8.48;3.80;;;16.80;54.40;;;;;;4992052;28;20424;-62
2021/04/18 00:25:48;;;;;;;7.45;3.63;;;16.80;54.30;;;;;;4988870;28;20034;-62
2021/04/18 00:28:13;;;;;;;7.22;3.63;;;16.70;54.40;;;;;;4992805;28;20085;-62
2021/04/18 00:30:39;;;;;;;7.20;3.05;;;16.70;54.40;;;;;;4987602;28;20491;-62
2021/04/18 00:33:04;;;;;;;8.43;3.88;;;16.60;54.40;;;;;;4991497;28;20038;-62
2021/04/18 00:35:30;;;;;;;9.65;3.60;;;16.60;54.40;;;;;;4991750;28;20041;-62
2021/04/18 00:37:56;;;;;;;8.50;3.25;;;16.60;54.40;;;;;;4981708;28;20487;-62
2021/04/18 00:40:23;;;;;;;6.60;3.03;;;16.60;54.30;;;;;;4993133;28;20030;-62
2021/04/18 00:42:49;;;;;;;5.97;3.03;;;16.60;54.30;;;;;;4992866;28;20049;-63
2021/04/18 00:45:15;;;;;;;8.82;3.40;;;16.60;54.10;;;;;;4988603;28;20044;-62
2021/04/18 00:47:47;;;;;;;7.47;2.90;;;16.60;54.30;;;;;;4983821;28;20395;-62
2021/04/18 00:50:17;;;;;;;6.28;3.13;;;16.60;54.30;;;;;;4992108;28;20113;-62
2021/04/18 00:52:43;;;;;;;7.13;3.22;;;16.60;54.10;;;;;;5031364;23;20073;-70
2021/04/18 00:55:09;;;;;;;6.07;3.00;;;16.60;54.10;;;;;;5010568;28;20579;-71
2021/04/18 00:57:35;;;;;;;6.55;3.10;;;16.60;54.20;;;;;;5011135;28;20049;-71
2021/04/18 01:00:04;;;;;;;7.18;3.35;;;16.50;54.80;;;;;;5011531;28;20030;-70
2021/04/18 01:02:29;;;;;;;7.40;2.95;;;16.50;54.20;;;;;;5010199;28;20030;-70
2021/04/18 01:04:55;;;;;;;6.20;2.90;;;16.50;54.10;;;;;;5011779;28;20034;-70
2021/04/18 01:07:20;;;;;;;6.20;2.92;;;16.60;54.10;;;;;;5011028;28;20467;-70
2021/04/18 01:09:46;;;;;;;6.57;2.80;;;16.50;54.00;;;;;;5011759;28;20030;-70
2021/04/18 01:12:12;;;;;;;6.50;2.78;;;16.50;54.00;;;;;;5011890;28;20073;-71
2021/04/18 01:14:37;;;;;;;8.40;3.10;;;16.50;54.00;;;;;;5004770;28;20049;-70
2021/04/18 01:17:03;;;;;;;6.55;3.20;;;16.50;54.00;;;;;;5007201;28;20492;-70
2021/04/18 01:19:29;;;;;;;9.55;3.13;;;16.50;54.00;;;;;;4999762;28;20029;-70
2021/04/18 01:21:54;;;;;;;6.82;2.80;;;16.60;53.80;;;;;;5010666;28;20025;-70
2021/04/18 01:24:20;;;;;;;5.65;2.97;;;16.60;53.80;;;;;;5009668;28;20376;-70
2021/04/18 01:26:46;;;;;;;7.53;2.97;;;16.60;53.70;;;;;;5010408;28;20030;-71
2021/04/18 01:29:12;;;;;;;6.90;3.00;;;16.60;53.60;;;;;;5011507;28;20310;-70
2021/04/18 01:31:38;;;;;;;6.55;2.88;;;16.60;53.60;;;;;;5011262;28;20029;-70
2021/04/18 01:34:03;;;;;;;5.47;2.63;;;16.50;53.70;;;;;;5009695;28;20018;-70
2021/04/18 01:36:30;;;;;;;5.80;2.83;;;16.50;53.70;;;;;;5009451;28;20022;-70
2021/04/18 01:38:56;;;;;;;8.27;3.03;;;16.50;53.80;;;;;;5007113;28;20037;-71
2021/04/18 01:41:22;;;;;;;6.20;2.70;;;16.50;53.70;;;;;;5010111;28;20095;-70
2021/04/18 01:43:47;;;;;;;5.85;2.80;;;16.50;53.90;;;;;;5011328;28;20037;-70
2021/04/18 01:46:13;;;;;;;7.13;3.38;;;16.50;53.70;;;;;;5009725;28;20033;-70
2021/04/18 01:48:39;;;;;;;5.50;2.95;;;16.50;53.70;;;;;;5009823;28;20038;-70
2021/04/18 01:51:07;;;;;;;6.25;2.83;;;16.50;53.70;;;;;;5009852;28;20068;-70
2021/04/18 01:53:32;;;;;;;6.20;2.65;;;16.50;53.70;;;;;;5010941;28;20054;-71
2021/04/18 01:55:59;;;;;;;9.57;2.67;;;16.50;53.70;;;;;;5011474;28;20080;-71
2021/04/18 01:58:25;;;;;;;5.35;2.65;;;16.50;53.70;;;;;;5010116;28;20054;-70
2021/04/18 02:00:51;;;;;;;5.65;2.53;;;16.50;53.70;;;;;;5010761;28;20080;-71
2021/04/18 02:03:16;;;;;;;5.68;2.53;;;16.40;53.60;;;;;;5013285;28;20117;-71
2021/04/18 02:05:42;;;;;;;6.95;2.83;;;16.40;53.70;;;;;;5015579;28;20038;-70
2021/04/18 02:08:07;;;;;;;7.45;2.88;;;16.40;53.70;;;;;;5013487;28;20021;-70
2021/04/18 02:10:33;;;;;;;6.40;2.72;;;16.40;53.70;;;;;;5013240;28;20022;-71
2021/04/18 02:12:58;;;;;;;7.05;2.70;;;16.40;53.70;;;;;;5013572;28;20030;-70
2021/04/18 02:15:24;;;;;;;5.43;2.53;;;16.40;53.70;;;;;;5015061;28;20033;-70
2021/04/18 02:17:49;;;;;;;5.30;2.45;;;16.40;53.70;;;;;;5014138;28;20034;-70
2021/04/18 02:20:16;;;;;;;5.78;2.58;;;16.40;53.80;;;;;;5010571;28;20034;-71
2021/04/18 02:22:43;;;;;;;6.00;2.80;;;16.40;53.70;;;;;;5014358;28;20037;-70
2021/04/18 02:25:09;;;;;;;6.95;2.90;;;16.40;53.70;;;;;;5012860;28;20036;-70
2021/04/18 02:27:35;;;;;;;6.03;2.70;;;16.40;53.80;;;;;;5014503;28;20026;-70
2021/04/18 02:30:01;;;;;;;5.43;2.75;;;16.40;53.80;;;;;;5013478;28;20049;-70
2021/04/18 02:32:26;;;;;;;7.30;2.63;;;16.40;53.90;;;;;;5014752;28;20129;-70
2021/04/18 02:34:52;;;;;;;5.85;2.60;;;16.40;53.80;;;;;;5014271;28;20440;-70
2021/04/18 02:37:17;;;;;;;6.28;2.88;;;16.30;53.80;;;;;;5014662;28;20052;-70
2021/04/18 02:39:43;;;;;;;5.88;2.72;;;16.30;54.40;;;;;;5014657;28;20026;-70
2021/04/18 02:42:10;;;;;;;5.47;2.63;;;16.30;54.00;;;;;;5014812;28;20053;-70
2021/04/18 02:44:35;;;;;;;5.65;2.50;;;16.30;54.00;;;;;;5014252;28;20029;-70
2021/04/18 02:47:03;;;;;;;6.57;2.67;;;16.30;54.00;;;;;;5013176;28;20035;-70
2021/04/18 02:49:28;;;;;;;5.13;2.33;;;16.30;54.00;;;;;;5014641;28;20030;-71
2021/04/18 02:51:54;;;;;;;5.38;2.60;;;16.20;54.00;;;;;;5012869;28;20069;-71
2021/04/18 02:54:19;;;;;;;7.35;2.30;;;16.30;54.20;;;;;;5014119;28;20065;-70
2021/04/18 02:56:45;;;;;;;5.28;2.58;;;16.20;54.10;;;;;;5013366;28;20471;-71
2021/04/18 02:59:11;;;;;;;5.63;2.67;;;16.20;54.10;;;;;;5013127;28;20117;-70
2021/04/18 03:01:37;;;;;;;5.15;2.65;;;16.20;54.10;;;;;;5014330;28;20108;-70
2021/04/18 03:04:04;;;;;;;5.47;2.50;;;16.20;54.10;;;;;;5013762;28;20387;-70
2021/04/18 03:06:29;;;;;;;5.88;2.80;;;16.20;54.10;;;;;;5014221;28;20057;-71
2021/04/18 03:08:55;;;;;;;5.97;2.60;;;16.20;54.20;;;;;;5013425;28;20112;-71
2021/04/18 03:11:21;;;;;;;6.13;2.65;;;16.20;54.30;;;;;;5014356;28;20026;-70
2021/04/18 03:13:46;;;;;;;5.55;2.60;;;16.20;54.20;;;;;;5012564;28;20484;-71
2021/04/18 03:16:12;;;;;;;5.40;2.58;;;16.10;54.20;;;;;;5013744;28;20033;-70
2021/04/18 03:18:37;;;;;;;5.88;2.50;;;16.10;54.20;;;;;;5014090;28;20086;-71
2021/04/18 03:21:04;;;;;;;7.10;2.90;;;16.10;54.20;;;;;;5013523;28;20068;-70
2021/04/18 03:23:30;;;;;;;6.25;2.25;;;16.10;54.20;;;;;;5011735;28;20021;-71
2021/04/18 03:25:55;;;;;;;6.53;2.80;;;16.20;54.30;;;;;;5013289;28;20084;-70
2021/04/18 03:28:21;;;;;;;8.50;2.55;;;16.10;54.40;;;;;;5013727;28;20021;-71
2021/04/18 03:30:46;;;;;;;6.47;2.28;;;16.10;54.40;;;;;;5013215;28;20053;-71
2021/04/18 03:33:12;;;;;;;3.67;2.20;;;16.10;54.50;;;;;;5013542;28;20038;-70
2021/04/18 03:35:37;;;;;;;5.22;2.35;;;16.10;54.60;;;;;;5013530;28;20492;-70
2021/04/18 03:38:03;;;;;;;8.18;2.50;;;16.10;54.70;;;;;;5013176;28;20034;-74
2021/04/18 03:40:30;;;;;;;6.60;2.20;;;16.10;54.60;;;;;;5012856;28;20026;-70
2021/04/18 03:42:55;;;;;;;4.93;2.55;;;16.10;54.50;;;;;;5013536;28;20045;-71
2021/04/18 03:45:21;;;;;;;6.90;2.63;;;16.10;54.60;;;;;;5013283;28;20018;-70
2021/04/18 03:47:48;;;;;;;6.05;2.70;;;16.00;54.60;;;;;;5013392;28;20036;-71
2021/04/18 03:50:13;;;;;;;5.90;2.60;;;16.10;54.60;;;;;;5012509;28;20026;-71
2021/04/18 03:52:39;;;;;;;6.18;3.10;;;16.00;54.50;;;;;;5013258;28;20399;-70
2021/04/18 03:55:06;;;;;;;6.60;2.53;;;16.00;54.50;;;;;;5012908;28;20029;-70
2021/04/18 03:57:31;;;;;;;6.22;2.47;;;16.00;54.70;;;;;;5013206;28;20029;-69
2021/04/18 03:59:57;;;;;;;7.03;2.90;;;16.00;54.50;;;;;;5013289;28;20104;-70
2021/04/18 04:02:22;;;;;;;6.47;2.60;;;16.00;54.60;;;;;;5007669;28;20076;-70
2021/04/18 04:04:48;;;;;;;4.95;2.33;;;16.00;54.60;;;;;;5011143;28;20076;-70
2021/04/18 04:07:13;;;;;;;6.07;2.47;;;16.00;54.50;;;;;;5013395;28;20486;-70
2021/04/18 04:09:39;;;;;;;7.10;2.65;;;16.00;54.50;;;;;;5013608;28;20093;-71
2021/04/18 04:12:05;;;;;;;6.38;2.67;;;15.90;54.50;;;;;;5011945;28;20029;-70
2021/04/18 04:14:31;;;;;;;6.18;2.17;;;15.90;54.50;;;;;;5012522;28;20018;-71
2021/04/18 04:16:56;;;;;;;6.85;2.20;;;16.00;54.50;;;;;;5011914;28;20030;-70
2021/04/18 04:19:22;;;;;;;6.20;2.30;;;16.00;54.50;;;;;;5012977;28;20095;-70
2021/04/18 04:21:48;;;;;;;4.82;2.20;;;16.00;54.60;;;;;;5011815;28;20021;-71
2021/04/18 04:24:13;;;;;;;6.00;2.55;;;15.90;54.60;;;;;;5011532;28;20068;-70
2021/04/18 04:26:39;;;;;;;5.65;2.50;;;15.90;54.60;;;;;;5012951;28;20426;-70
2021/04/18 04:29:05;;;;;;;7.10;2.55;;;15.90;54.50;;;;;;5012779;28;20041;-70
2021/04/18 04:31:30;;;;;;;8.70;2.95;;;15.90;54.40;;;;;;5011148;28;20029;-71
2021/04/18 04:33:56;;;;;;;6.30;2.70;;;15.90;54.60;;;;;;5012651;28;20396;-71
2021/04/18 04:36:22;;;;;;;6.10;2.80;;;15.90;54.50;;;;;;5012917;28;20031;-71
2021/04/18 04:38:47;;;;;;;5.95;2.50;;;15.90;54.60;;;;;;5012568;28;20025;-70
2021/04/18 04:41:13;;;;;;;6.18;2.75;;;15.90;54.60;;;;;;5012665;28;20036;-70
2021/04/18 04:43:38;;;;;;;7.18;2.60;;;15.90;54.60;;;;;;5011620;28;20030;-70
2021/04/18 04:46:04;;;;;;;6.70;2.83;;;15.90;54.50;;;;;;5010129;28;20026;-71
2021/04/18 04:48:29;;;;;;;6.30;2.78;;;15.80;54.50;;;;;;5011821;28;20096;-70
2021/04/18 04:50:55;;;;;;;6.00;2.72;;;15.90;54.50;;;;;;5000280;28;20160;-70
2021/04/18 04:53:21;;;;;;;5.22;2.83;;;15.80;54.50;;;;;;5010881;28;20478;-71
2021/04/18 04:55:47;;;;;;;5.97;2.60;;;15.90;54.50;;;;;;5010071;28;20105;-70
2021/04/18 04:58:13;;;;;;;6.07;2.60;;;15.80;54.50;;;;;;5004820;28;20471;-70
2021/04/18 05:00:38;;;;;;;5.97;2.55;;;15.80;54.50;;;;;;5008474;28;20026;-71
2021/04/18 05:03:04;;;;;;;6.25;2.67;;;15.80;54.50;;;;;;5009918;28;20022;-70
2021/04/18 05:05:31;;;;;;;4.70;2.40;;;15.80;54.60;;;;;;5010890;28;20034;-71
2021/04/18 05:07:56;;;;;;;5.35;2.65;;;15.80;54.60;;;;;;5009814;28;20438;-70
2021/04/18 05:10:22;;;;;;;5.43;2.38;;;15.80;54.50;;;;;;4995818;28;20022;-70
2021/04/18 05:12:48;;;;;;;5.95;2.60;;;15.80;54.50;;;;;;5009430;28;20022;-71
2021/04/18 05:15:13;;;;;;;5.70;2.60;;;15.80;54.70;;;;;;5009975;28;20022;-70
2021/04/18 05:17:39;;;;;;;7.57;2.80;;;15.80;54.60;;;;;;5009958;28;20399;-70
2021/04/18 05:20:05;;;;;;;6.50;2.72;;;15.80;54.60;;;;;;5010989;28;20026;-71
2021/04/18 05:22:31;;;;;;;6.35;2.70;;;15.80;54.60;;;;;;5011611;28;20034;-70
2021/04/18 05:24:56;;;;;;;6.53;2.60;;;15.80;54.50;;;;;;5008197;28;20137;-70
2021/04/18 05:27:22;;;;;;;6.38;2.80;;;15.80;54.40;;;;;;5009994;28;20404;-70
2021/04/18 05:29:48;;;;;;;6.53;2.63;;;15.80;54.60;;;;;;5010077;28;20060;-70
2021/04/18 05:32:13;;;;;;;7.03;2.65;;;15.80;54.50;;;;;;5003123;28;20468;-71
2021/04/18 05:34:39;;;;;;;7.82;2.92;;;15.80;54.30;;;;;;5007456;28;20065;-71
2021/04/18 05:37:05;;;;;;;4.95;2.63;;;15.80;54.40;;;;;;5000895;28;20030;-71
2021/04/18 05:39:31;;;;;;;7.00;2.67;;;15.80;54.30;;;;;;5004132;28;20037;-71
2021/04/18 05:41:56;;;;;;;5.65;2.47;;;15.80;54.30;;;;;;5008056;28;20506;-71
2021/04/18 05:44:22;;;;;;;6.10;2.58;;;15.80;54.40;;;;;;5007653;28;20042;-71
2021/04/18 05:46:48;;;;;;;6.38;2.55;;;15.80;54.40;;;;;;5011008;28;20030;-70
2021/04/18 05:49:13;;;;;;;5.80;2.72;;;15.80;54.40;;;;;;5008035;28;20034;-70
2021/04/18 05:51:39;;;;;;;5.40;2.60;;;15.80;54.30;;;;;;5010535;28;20031;-70
2021/04/18 05:54:06;;;;;;;4.95;2.25;;;15.80;54.20;;;;;;5010714;28;20550;-71
2021/04/18 05:56:32;;;;;;;6.50;2.60;;;15.90;54.20;;;;;;5003116;28;20084;-71
2021/04/18 05:58:58;;;;;;;5.88;2.72;;;15.90;53.90;;;;;;5011172;28;20026;-70
2021/04/18 06:01:23;;;;;;;5.65;2.58;;;16.00;53.80;;;;;;5010375;28;20037;-70
2021/04/18 06:03:56;;;;;;;4.68;2.30;;;16.00;53.50;;;;;;5010554;28;20673;-70
2021/04/18 06:06:23;;;;;;;6.68;2.67;;;16.10;53.70;;;;;;4999723;28;20103;-71
2021/04/18 06:08:49;;;;;;;5.30;2.58;;;16.10;53.50;;;;;;4998509;28;20396;-70
2021/04/18 06:11:15;;;;;;;4.78;2.40;;;16.10;53.40;;;;;;5005096;28;20129;-71
2021/04/18 06:13:40;;;;;;;5.63;2.38;;;16.10;53.30;;;;;;5008921;28;20105;-71
2021/04/18 06:16:06;;;;;;;4.40;2.13;;;16.20;53.30;;;;;;5004615;28;20029;-70
2021/04/18 06:18:33;;;;;;;5.47;2.30;;;16.20;53.10;;;;;;5001783;28;20034;-70
2021/04/18 06:20:58;;;;;;;4.57;2.30;;;16.30;53.10;;;;;;5010879;28;20104;-70
2021/04/18 06:23:24;;;;;;;6.78;2.80;;;16.30;52.90;;;;;;5008911;28;20506;-71
2021/04/18 06:25:49;;;;;;;6.43;2.60;;;16.30;52.90;;;;;;5010619;28;20496;-70
2021/04/18 06:28:16;;;;;;;4.63;2.22;;;16.40;52.70;;;;;;5011316;28;20499;-71
2021/04/18 06:30:41;;;;;;;6.55;2.83;;;16.40;52.80;;;;;;5009349;28;20026;-71
2021/04/18 06:33:07;;;;;;;4.85;2.60;;;16.50;52.60;;;;;;5009113;28;20538;-70
2021/04/18 06:35:32;;;;;;;6.10;2.80;;;16.70;52.20;;;;;;5006147;28;20030;-71
2021/04/18 06:37:58;;;;;;;5.50;2.58;;;16.70;52.00;;;;;;5009634;28;20034;-71
2021/04/18 06:40:23;;;;;;;5.30;2.40;;;16.70;51.80;;;;;;5006233;28;20447;-71
2021/04/18 06:42:54;;;;;;;5.65;2.47;;;16.70;51.80;;;;;;5009881;28;20026;-70
2021/04/18 06:45:20;;;;;;;6.18;2.60;;;16.70;51.80;;;;;;5006260;28;20034;-71
2021/04/18 06:47:46;;;;;;;5.20;2.60;;;16.80;51.50;;;;;;5004822;28;20050;-71
2021/04/18 06:50:12;;;;;;;5.40;2.65;;;16.90;51.40;;;;;;5007336;28;20073;-71
2021/04/18 06:52:38;;;;;;;5.10;2.70;;;17.00;51.30;;;;;;5013115;28;20038;-71
2021/04/18 06:55:08;;;;;;;7.55;2.75;;;17.20;50.80;;;;;;5012678;28;20038;-71
2021/04/18 06:57:34;;;;;;;6.53;2.90;;;17.40;50.60;;;;;;5006327;28;20491;-71
2021/04/18 07:00:00;;;;;;;4.35;2.20;;;17.80;49.80;;;;;;5010859;28;20034;-71
2021/04/18 07:02:31;;;;;;;6.35;2.95;;;18.70;48.30;;;;;;5013708;28;20052;-70
2021/04/18 07:04:58;;;;;;;;;;;18.90;47.40;;;;;;5013952;28;20427;-71
2021/04/18 07:07:29;;;;;;;6.72;2.90;;;19.00;46.80;;;;;;5011151;28;20431;-70
2021/04/18 07:09:54;;;;;;;4.93;2.25;;;19.40;46.60;;;;;;5012158;28;20061;-71
2021/04/18 07:12:32;;;;;;;6.15;2.72;;;19.70;45.50;;;;;;5011897;28;20057;-72
2021/04/18 07:14:59;;;;;;;7.25;2.70;;;20.10;44.80;;;;;;5012489;28;20507;-70
2021/04/18 07:17:25;;;;;;;5.70;2.50;;;20.00;44.30;;;;;;5010404;28;20057;-72
2021/04/18 07:20:09;;;;;;;5.53;2.67;;;19.60;45.10;;;;;;5010741;28;20093;-71
2021/04/18 07:22:35;;;;;;;5.63;2.60;;;19.20;45.90;;;;;;5010762;28;20555;-70
2021/04/18 07:25:00;;;;;;;5.38;2.38;;;18.80;46.70;;;;;;5012506;28;20030;-71
2021/04/18 07:27:49;;;;;;;5.63;2.50;;;18.50;47.30;;;;;;5011296;28;20022;-70
2021/04/18 07:30:20;;;;;;;5.72;2.63;;;18.30;47.80;;;;;;5011133;28;20022;-73
2021/04/18 07:32:46;;;;;;;7.05;2.58;;;18.20;48.10;;;;;;5003245;28;20503;-71
2021/04/18 07:35:34;;;;;;;13.60;3.17;;;18.10;48.30;;;;;;5000892;28;20023;-72
2021/04/18 07:38:29;;;;;;;9.07;2.70;;;18.10;48.40;;;;;;4994550;28;20124;-71
2021/04/18 07:41:19;;;;;;;7.07;2.75;;;18.50;48.60;;;;;;5012771;28;20024;-72
2021/04/18 07:43:47;;;;;;;7.47;2.90;;;19.10;47.00;;;;;;5010299;28;20066;-70
2021/04/18 07:46:13;;;;;;;7.90;3.05;;;19.10;46.70;;;;;;5005159;28;20092;-71
2021/04/18 07:48:39;;;;;;;5.78;2.50;;;18.80;47.10;;;;;;5008292;28;20017;-71
2021/04/18 07:51:05;;;;;;;7.38;2.80;;;18.70;47.30;;;;;;5011230;28;20022;-70
2021/04/18 07:53:31;;;;;;;7.03;3.17;;;18.50;47.40;;;;;;5010520;28;20021;-70
2021/04/18 07:55:56;;;;;;;7.88;2.80;;;18.60;47.60;;;;;;5009725;28;20407;-70
2021/04/18 07:58:22;;;;;;;10.13;2.80;;;18.60;47.50;;;;;;5012680;28;20037;-70
2021/04/18 08:00:48;;;;;;;7.43;3.60;;;18.60;47.30;;;;;;5013250;28;20022;-70
2021/04/18 08:03:15;;;;;;;9.63;3.63;;;18.60;47.50;;;;;;5011972;28;20032;-71
2021/04/18 08:05:41;;;;;;;7.70;3.15;;;18.80;47.50;;;;;;5013437;28;20052;-70
2021/04/18 08:08:14;;;;;;;7.20;3.28;;;19.30;46.30;;;;;;5013307;28;20484;-71
2021/04/18 08:10:40;;;;;;;7.00;3.42;;;19.40;46.00;;;;;;5013443;28;20104;-71
2021/04/18 08:13:12;;;;;;;8.60;3.28;;;19.20;46.20;;;;;;5011894;28;20441;-70
2021/04/18 08:15:46;;;;;;;9.32;4.85;;;19.00;46.20;;;;;;5012179;28;20411;-69
2021/04/18 08:18:14;;;;;;;11.85;4.35;;;18.70;46.60;;;;;;5012657;28;20057;-71
2021/04/18 08:20:45;;;;;;;7.85;3.42;;;18.50;47.30;;;;;;5010996;28;20033;-70
2021/04/18 08:23:18;;;;;;;10.00;3.47;;;18.30;47.40;;;;;;5010846;28;20057;-69
2021/04/18 08:26:12;;;;;;;9.80;3.35;;;18.30;48.10;;;;;;5009864;28;20026;-70
2021/04/18 08:28:58;;;;;;;10.50;3.72;;;18.20;47.90;;;;;;5011168;28;20029;-70
2021/04/18 08:31:31;;;;;;;8.88;3.22;;;18.20;47.80;;;;;;5009757;28;20064;-70
2021/04/18 08:33:59;;;;;;;10.27;3.42;;;18.30;48.20;;;;;;5010312;28;20113;-70
2021/04/18 08:36:28;;;;;;;8.45;3.67;;;18.40;48.00;;;;;;5012419;28;20113;-70
2021/04/18 08:39:05;;;;;;;7.68;3.13;;;18.50;47.90;;;;;;5011008;28;20034;-70
2021/04/18 08:41:36;;;;;;;7.00;2.53;;;18.70;47.40;;;;;;5011844;28;20029;-70
2021/04/18 08:44:21;;;;;;;9.13;2.65;;;18.80;47.60;;;;;;5007391;28;20512;-69
2021/04/18 08:46:48;;;;;;;15.32;3.20;;;19.00;47.00;;;;;;5012212;28;20033;-73
2021/04/18 08:49:29;;;;;;;10.82;3.30;;;19.20;46.80;;;;;;5011536;28;20022;-70
2021/04/18 08:51:56;;;;;;;15.77;3.42;;;19.50;46.60;;;;;;5011314;28;20365;-76
2021/04/18 08:54:33;;;;;;;12.05;3.10;;;19.60;46.50;;;;;;5012031;28;20022;-71
2021/04/18 08:57:03;;;;;;;20.98;3.70;;;19.70;46.80;;;;;;5012447;28;20516;-72
2021/04/18 08:59:29;;;;;;;28.45;4.13;;;19.80;46.40;;;;;;5010659;28;20083;-70
2021/04/18 09:01:58;;;;;;;17.60;2.88;;;19.90;46.90;;;;;;5012430;28;20042;-71
2021/04/18 09:04:24;;;;;;;12.68;3.40;;;20.00;46.10;;;;;;5010974;28;20079;-70
2021/04/18 09:06:50;;;;;;;14.60;5.60;;;19.90;45.70;;;;;;5010820;28;20065;-74
2021/04/18 09:09:17;;;;;;;26.65;9.98;;;19.80;46.10;;;;;;5009896;28;20046;-74
2021/04/18 09:11:46;;;;;;;33.35;16.70;;;19.80;46.10;;;;;;5009731;28;20075;-71
2021/04/18 09:14:15;;;;;;;90.15;64.35;;;20.00;46.30;;;;;;5009692;28;20618;-75
2021/04/18 09:16:41;;;;;;;106.47;72.85;;;20.20;45.90;;;;;;5011036;28;20021;-72
2021/04/18 09:19:25;;;;;;;94.93;67.45;;;20.60;45.80;;;;;;5009988;28;20037;-73
2021/04/18 09:21:56;;;;;;;105.43;71.07;;;21.40;44.50;;;;;;5007934;28;20026;-73
2021/04/18 09:24:23;;;;;;;93.50;63.40;;;22.10;42.80;;;;;;5009535;28;20034;-77
2021/04/18 09:27:01;;;;;;;95.20;71.05;;;22.10;42.90;;;;;;5004840;28;20061;-75
2021/04/18 09:29:28;;;;;;;94.07;64.50;;;22.20;43.10;;;;;;5009846;28;20431;-76
2021/04/18 09:31:59;;;;;;;76.13;55.45;;;22.70;42.60;;;;;;5010909;28;20049;-76
2021/04/18 09:34:25;;;;;;;74.32;51.50;;;22.70;42.10;;;;;;5010286;28;20018;-74
2021/04/18 09:36:54;;;;;;;61.72;45.67;;;23.00;42.30;;;;;;5009919;28;20029;-72
2021/04/18 09:39:20;;;;;;;56.47;41.08;;;22.70;41.90;;;;;;5009233;28;20084;-76
2021/04/18 09:41:47;;;;;;;49.22;33.97;;;22.30;42.50;;;;;;5009755;28;20708;-72
2021/04/18 09:44:27;;;;;;;42.42;31.23;;;22.40;42.70;;;;;;5010350;28;20430;-75
2021/04/18 09:46:55;;;;;;;65.85;30.83;;;22.30;42.50;;;;;;5009446;28;20029;-75
2021/04/18 09:49:21;;;;;;;45.25;26.17;;;22.20;43.10;;;;;;5011540;28;20065;-76
2021/04/18 09:52:01;;;;;;;47.25;26.83;;;22.10;42.70;;;;;;5009420;28;20041;-76
2021/04/18 09:54:34;;;;;;;36.05;23.75;;;22.30;42.90;;;;;;5002557;28;20061;-70
2021/04/18 09:57:33;;;;;;;46.47;23.63;;;22.80;42.00;;;;;;5004232;28;20033;-72
2021/04/18 10:00:06;;;;;;;40.60;21.50;;;24.00;40.50;;;;;;4991998;28;20046;-73
2021/04/18 10:02:32;;;;;;;40.47;20.83;;;25.00;38.00;;;;;;5006662;28;20456;-75
2021/04/18 10:05:15;;;;;;;27.10;14.15;;;24.00;39.70;;;;;;5008321;28;20072;-74
2021/04/18 10:07:42;;;;;;;18.67;11.43;;;23.00;39.40;;;;;;4995504;28;20053;-76
2021/04/18 10:10:10;;;;;;;20.08;11.52;;;22.30;40.80;;;;;;4996607;28;20026;-72
2021/04/18 10:12:46;;;;;;;26.65;16.33;;;22.10;41.60;;;;;;5008474;28;20721;-75
2021/04/18 10:15:12;;;;;;;24.63;12.73;;;22.30;42.40;;;;;;5009362;28;20076;-72
2021/04/18 10:17:37;;;;;;;17.05;8.77;;;22.40;41.70;;;;;;5010943;28;20026;-71
2021/04/18 10:20:05;;;;;;;17.45;8.18;;;22.60;40.70;;;;;;5010713;28;20509;-70
2021/04/18 10:22:30;;;;;;;17.95;8.68;;;24.00;38.00;;;;;;5012417;28;20083;-70
2021/04/18 10:24:58;;;;;;;20.95;10.68;;;24.70;37.40;;;;;;5013454;28;20105;-69
2021/04/18 10:27:27;;;;;;;35.85;19.20;;;24.80;37.20;;;;;;5014637;28;20044;-71
2021/04/18 10:29:54;;;;;;;51.03;26.00;;;25.20;37.10;;;;;;5013863;28;20026;-73
2021/04/18 10:32:21;;;;;;;49.40;23.30;;;25.50;36.40;;;;;;5013486;28;20022;-73
2021/04/18 10:34:52;;;;;;;45.95;25.58;;;25.30;36.30;;;;;;5005075;28;20021;-72
2021/04/18 10:37:18;;;;;;;40.60;22.05;;;25.10;37.10;;;;;;5013978;28;20511;-72
2021/04/18 10:39:44;;;;;;;37.60;20.45;;;24.70;37.10;;;;;;5012349;28;20083;-72
2021/04/18 10:42:11;;;;;;;34.95;19.50;;;23.70;38.40;;;;;;5013565;28;20524;-73
2021/04/18 10:44:37;;;;;;;37.63;19.65;;;23.10;39.50;;;;;;5014490;28;20032;-73
2021/04/18 10:47:06;;;;;;;39.15;18.92;;;22.90;40.20;;;;;;5013989;28;20025;-73
2021/04/18 10:49:33;;;;;;;31.35;17.85;;;23.00;40.40;;;;;;5014054;28;20030;-73
2021/04/18 10:51:59;;;;;;;36.75;18.73;;;22.90;40.10;;;;;;5013457;28;20041;-73
2021/04/18 10:54:25;;;;;;;27.38;15.70;;;22.90;40.40;;;;;;5014175;28;20395;-72
2021/04/18 10:56:52;;;;;;;28.23;15.85;;;24.00;39.20;;;;;;5013650;28;20022;-73
2021/04/18 10:59:18;;;;;;;30.02;15.82;;;25.00;37.30;;;;;;5014750;28;20400;-72
2021/04/18 11:01:44;;;;;;;25.15;15.18;;;25.20;36.60;;;;;;5012891;28;20036;-71
2021/04/18 11:04:10;;;;;;;27.67;14.85;;;25.70;36.20;;;;;;5013981;28;20022;-73
2021/04/18 11:06:37;;;;;;;24.50;14.02;;;26.20;35.40;;;;;;5014185;28;20074;-73
2021/04/18 11:09:04;;;;;;;25.33;14.05;;;26.40;35.00;;;;;;5014650;28;20105;-73
2021/04/18 11:11:30;;;;;;;23.25;13.75;;;26.10;35.20;;;;;;5014380;28;20523;-72
2021/04/18 11:13:55;;;;;;;25.85;13.70;;;26.50;34.90;;;;;;5014267;28;20388;-73
2021/04/18 11:16:21;;;;;;;21.65;12.57;;;26.50;34.40;;;;;;5013144;28;20022;-72
2021/04/18 11:18:47;;;;;;;24.35;13.13;;;26.70;34.50;;;;;;5014439;28;20487;-73
2021/04/18 11:21:13;;;;;;;20.45;11.52;;;26.80;34.40;;;;;;5014407;28;20049;-72
2021/04/18 11:23:40;;;;;;;20.13;11.10;;;26.50;34.50;;;;;;5014032;28;20029;-73
2021/04/18 11:26:05;;;;;;;21.02;12.55;;;25.60;35.20;;;;;;5014275;28;20018;-73
2021/04/18 11:28:31;;;;;;;20.02;12.18;;;25.10;36.30;;;;;;5014188;28;20033;-73
2021/04/18 11:30:57;;;;;;;19.48;10.88;;;25.60;36.00;;;;;;5014020;28;20025;-72
2021/04/18 11:33:23;;;;;;;23.02;11.32;;;25.80;35.60;;;;;;5012612;28;20081;-72
2021/04/18 11:35:49;;;;;;;19.73;10.85;;;26.00;35.30;;;;;;5012859;28;20064;-70
2021/04/18 11:38:15;;;;;;;19.52;10.48;;;26.00;35.20;;;;;;5014114;28;20495;-70
2021/04/18 11:40:40;;;;;;;20.42;10.65;;;26.00;35.50;;;;;;5013838;28;20058;-69
2021/04/18 11:43:06;;;;;;;17.60;10.55;;;25.70;35.60;;;;;;5012221;28;20052;-71
2021/04/18 11:45:31;;;;;;;17.05;9.07;;;25.20;36.90;;;;;;5011114;28;20518;-70
2021/04/18 11:47:57;;;;;;;17.85;9.60;;;25.40;36.10;;;;;;5012452;28;20498;-70
2021/04/18 11:50:23;;;;;;;16.88;9.38;;;25.00;36.30;;;;;;5012408;28;20050;-71
2021/04/18 11:52:49;;;;;;;17.00;8.95;;;24.70;37.30;;;;;;5010799;28;20146;-70
2021/04/18 11:55:15;;;;;;;20.20;8.88;;;24.70;37.30;;;;;;5011920;28;20026;-71
2021/04/18 11:57:42;;;;;;;14.55;8.27;;;24.50;37.80;;;;;;5013097;28;20084;-70
2021/04/18 12:00:10;;;;;;;14.65;8.73;;;24.00;38.40;;;;;;5013030;28;20100;-70
2021/04/18 12:02:36;;;;;;;16.05;8.90;;;23.20;39.40;;;;;;5012879;28;20024;-71
2021/04/18 12:05:03;;;;;;;12.93;8.18;;;22.80;40.10;;;;;;5011415;28;20022;-70
2021/04/18 12:07:29;;;;;;;15.25;7.60;;;22.50;40.60;;;;;;5011922;28;20507;-70
2021/04/18 12:09:55;;;;;;;15.65;7.47;;;22.30;40.90;;;;;;5013461;28;20105;-70
2021/04/18 12:12:20;;;;;;;14.18;8.30;;;22.20;41.10;;;;;;5010939;28;20120;-70
2021/04/18 12:14:46;;;;;;;14.93;7.65;;;22.20;41.20;;;;;;5013097;28;20025;-71
2021/04/18 12:17:12;;;;;;;16.40;7.53;;;22.10;41.30;;;;;;5013121;28;20053;-70
2021/04/18 12:19:37;;;;;;;17.83;7.95;;;22.10;41.60;;;;;;5013316;28;20127;-70
2021/04/18 12:22:03;;;;;;;15.77;7.75;;;22.00;41.60;;;;;;5012194;28;20022;-70
2021/04/18 12:24:29;;;;;;;14.10;7.30;;;21.90;41.90;;;;;;5011551;28;20033;-69
2021/04/18 12:26:54;;;;;;;14.48;7.15;;;21.80;41.90;;;;;;5011810;28;20026;-70
2021/04/18 12:29:20;;;;;;;15.00;7.35;;;21.70;42.20;;;;;;5013101;28;20022;-70
2021/04/18 12:31:46;;;;;;;12.57;6.95;;;21.60;42.30;;;;;;5012803;28;20029;-70
2021/04/18 12:34:11;;;;;;;13.60;6.88;;;21.50;42.50;;;;;;5012520;28;20096;-70
2021/04/18 12:36:37;;;;;;;14.48;7.35;;;21.60;42.60;;;;;;5011658;28;20022;-70
2021/04/18 12:39:07;;;;;;;11.95;7.07;;;21.60;42.70;;;;;;5012996;28;20038;-70
2021/04/18 12:41:33;;;;;;;11.88;6.43;;;21.50;42.70;;;;;;5012783;28;20055;-70